Time;durP1;ratioP1;P1;durP2;ratioP2;P2;SDS_P1;SDS_P2;PMS_P1;PMS_P2;Temp;Humidity;BMP_temperature;BMP_pressure;BME280_temperature;BME280_humidity;BME280_pressure;Samples;Min_cycle;Max_cycle;Signal;HPM_P1;HPM_P2
2022/12/15 00:38:44;;;;;;;7.30;6.85;;;4.10;99.90;;;;;;5081506;28;20086;-75
2022/12/15 00:41:15;;;;;;;8.13;7.70;;;4.10;99.90;;;;;;5076006;28;20030;-74
2022/12/15 00:43:41;;;;;;;38.25;35.85;;;4.10;99.90;;;;;;5056577;28;20029;-75
2022/12/15 00:48:51;;;;;;;0.10;0.10;;;4.10;99.90;;;;;;5076444;28;20035;-75
2022/12/15 00:51:17;;;;;;;0.20;0.20;;;4.10;99.90;;;;;;5068950;28;20021;-74
2022/12/15 01:21:12;;;;;;;23.13;21.25;;;4.00;99.90;;;;;;5076709;28;20649;-74
2022/12/15 01:23:41;;;;;;;0.73;0.73;;;4.00;99.90;;;;;;5057844;28;20360;-74
2022/12/15 01:26:07;;;;;;;2.53;2.40;;;4.00;99.90;;;;;;5069005;28;20260;-75
2022/12/15 01:28:33;;;;;;;13.15;12.07;;;4.10;99.90;;;;;;5048590;28;20047;-75
2022/12/15 01:30:59;;;;;;;0.15;0.15;;;4.10;99.90;;;;;;5079882;28;20082;-74
2022/12/15 01:33:25;;;;;;;0.40;0.40;;;4.10;99.90;;;;;;5084660;28;20028;-74
2022/12/15 01:36:01;;;;;;;0.63;0.63;;;4.10;99.90;;;;;;5083567;28;20021;-74
2022/12/15 01:38:29;;;;;;;27.92;24.30;;;4.10;99.90;;;;;;5092683;28;20031;-75
2022/12/15 01:40:58;;;;;;;33.13;31.48;;;4.10;99.90;;;;;;5085660;28;20449;-74
2022/12/15 01:43:32;;;;;;;0.30;0.30;;;4.10;99.90;;;;;;5082036;28;20267;-75
2022/12/15 01:46:08;;;;;;;0.20;0.20;;;4.20;99.90;;;;;;5071569;28;20456;-76
2022/12/15 01:48:42;;;;;;;2.65;2.55;;;4.00;99.90;;;;;;5070488;28;20410;-75
2022/12/15 01:51:16;;;;;;;9.98;9.55;;;4.00;99.90;;;;;;5071314;28;20028;-75
2022/12/15 01:53:58;;;;;;;6.15;5.93;;;4.00;99.90;;;;;;5070063;28;20032;-75
2022/12/15 01:56:26;;;;;;;0.57;0.57;;;3.90;99.90;;;;;;5050905;28;20241;-75
2022/12/15 01:58:55;;;;;;;0.40;0.40;;;3.90;99.90;;;;;;5075076;28;20545;-74
2022/12/15 02:01:21;;;;;;;6.22;5.93;;;3.90;99.90;;;;;;5071703;28;20036;-77
2022/12/15 02:03:48;;;;;;;2.40;2.30;;;3.90;99.90;;;;;;5077239;28;20031;-74
2022/12/15 02:06:20;;;;;;;0.17;0.17;;;3.90;99.90;;;;;;5079655;28;20092;-75
2022/12/15 02:08:53;;;;;;;0.60;0.60;;;3.90;99.90;;;;;;5055474;28;20320;-75
2022/12/15 02:11:25;;;;;;;0.77;0.77;;;3.90;99.90;;;;;;5074930;28;20213;-74
2022/12/15 02:14:01;;;;;;;0.65;0.65;;;3.90;99.90;;;;;;5075367;28;20918;-75
2022/12/15 02:16:33;;;;;;;1.02;1.02;;;4.00;99.90;;;;;;5073881;28;20021;-74
2022/12/15 02:19:09;;;;;;;14.13;13.38;;;4.00;99.90;;;;;;5075239;28;20034;-74
2022/12/15 02:22:21;;;;;;;0.80;0.80;;;4.00;99.90;;;;;;5066617;28;20205;-74
2022/12/15 02:25:16;;;;;;;39.55;36.40;;;4.10;99.90;;;;;;5011838;28;20069;-75
2022/12/15 02:28:03;;;;;;;0.73;0.73;;;4.20;99.90;;;;;;5010167;28;20093;-74
2022/12/15 02:31:48;;;;;;;29.02;14.00;;;5.40;99.90;;;;;;4996006;28;20029;-74
2022/12/15 02:33:36;;;;;;;7.47;4.20;;;4.10;99.90;;;;;;5010202;28;20064;-75
2022/12/15 02:36:32;;;;;;;0.00;0.00;;;4.00;99.90;;;;;;5011385;28;20057;-74
2022/12/15 02:38:58;;;;;;;30.98;29.42;;;4.00;99.90;;;;;;5004189;28;20119;-78
2022/12/15 02:41:52;;;;;;;1.83;1.77;;;4.00;99.90;;;;;;5011573;28;20444;-74
2022/12/15 02:44:32;;;;;;;1.30;1.30;;;4.00;99.90;;;;;;4952094;29;20039;-75
2022/12/15 02:47:03;;;;;;;10.70;10.18;;;3.90;99.90;;;;;;4952275;29;20137;-74
2022/12/15 02:49:47;;;;;;;17.50;16.15;;;4.00;99.90;;;;;;4945216;29;20074;-73
2022/12/15 02:52:31;;;;;;;5.63;5.35;;;4.00;99.90;;;;;;4951791;28;20554;-75
2022/12/15 02:55:18;;;;;;;4.30;4.07;;;3.80;99.90;;;;;;4956546;28;20050;-74
2022/12/15 02:58:00;;;;;;;0.20;0.20;;;4.10;99.90;;;;;;4976582;28;20038;-75
2022/12/15 03:00:31;;;;;;;0.10;0.10;;;4.10;99.90;;;;;;4972492;28;20273;-74
2022/12/15 03:02:58;;;;;;;2.03;1.95;;;4.10;99.90;;;;;;4970929;28;20039;-73
2022/12/15 03:05:24;;;;;;;22.20;21.45;;;4.10;99.90;;;;;;4970165;28;20419;-74
2022/12/15 03:07:51;;;;;;;0.73;0.70;;;4.10;99.90;;;;;;4968879;28;20059;-74
2022/12/15 03:10:18;;;;;;;5.78;3.00;;;4.10;99.90;;;;;;4970112;28;20613;-74
2022/12/15 03:12:44;;;;;;;1.35;1.35;;;4.10;99.90;;;;;;4970615;28;20104;-75
2022/12/15 03:15:10;;;;;;;16.98;16.17;;;4.10;99.90;;;;;;4971789;28;20043;-74
2022/12/15 03:17:37;;;;;;;0.03;0.03;;;3.80;99.90;;;;;;4969916;28;20493;-74
2022/12/15 03:20:04;;;;;;;0.40;0.40;;;4.00;99.90;;;;;;4991705;28;20040;-74
2022/12/15 03:22:30;;;;;;;0.77;0.77;;;3.90;99.90;;;;;;5074153;28;20036;-74
2022/12/15 03:24:56;;;;;;;3.88;3.75;;;3.80;99.90;;;;;;5075179;28;20029;-74
2022/12/15 03:27:22;;;;;;;1.80;1.75;;;3.80;99.90;;;;;;5056031;28;20044;-74
2022/12/15 03:29:48;;;;;;;0.30;0.30;;;3.80;99.90;;;;;;5073775;28;20174;-74
2022/12/15 03:32:14;;;;;;;1.02;1.02;;;3.80;99.90;;;;;;5074219;28;20208;-74
2022/12/15 03:34:40;;;;;;;7.53;7.28;;;3.70;99.90;;;;;;5073465;28;20056;-74
2022/12/15 03:37:08;;;;;;;10.70;10.30;;;3.70;99.90;;;;;;5073537;28;20352;-74
2022/12/15 03:39:33;;;;;;;0.50;0.50;;;3.70;99.90;;;;;;5073667;28;20098;-74
2022/12/15 03:41:59;;;;;;;11.93;11.35;;;3.70;99.90;;;;;;5072759;28;20020;-74
2022/12/15 03:44:25;;;;;;;0.10;0.10;;;;;;;;;;5073064;28;20024;-75
2022/12/15 03:46:51;;;;;;;37.92;35.67;;;3.60;99.90;;;;;;5073525;28;20033;-74
2022/12/15 03:49:17;;;;;;;0.30;0.30;;;3.60;99.90;;;;;;5074019;28;20047;-73
2022/12/15 03:51:43;;;;;;;1.98;1.88;;;3.60;99.90;;;;;;5073300;28;20025;-74
2022/12/15 03:54:11;;;;;;;1.67;1.58;;;3.60;99.90;;;;;;5073530;28;20518;-74
2022/12/15 03:56:37;;;;;;;12.48;11.35;;;3.50;99.90;;;;;;5073049;28;20032;-74
2022/12/15 03:59:03;;;;;;;3.92;3.75;;;3.50;99.90;;;;;;5074370;28;20046;-74
2022/12/15 04:01:34;;;;;;;9.48;9.07;;;3.50;99.90;;;;;;5073269;28;20080;-74
2022/12/15 04:04:01;;;;;;;11.57;10.85;;;3.50;99.90;;;;;;5065490;28;20032;-74
2022/12/15 04:06:27;;;;;;;0.30;0.30;;;3.50;99.90;;;;;;5055808;28;20078;-74
2022/12/15 04:08:53;;;;;;;0.43;0.43;;;3.50;99.90;;;;;;5072918;28;20105;-74
2022/12/15 04:11:43;;;;;;;0.43;0.43;;;3.50;99.90;;;;;;5065662;28;20024;-77
2022/12/15 04:14:09;;;;;;;9.70;9.32;;;3.50;99.90;;;;;;5064062;28;20041;-74
2022/12/15 04:16:34;;;;;;;8.63;8.25;;;3.50;99.90;;;;;;5075333;28;20081;-74
2022/12/15 04:21:44;;;;;;;7.15;6.80;;;4.00;99.90;;;;;;5076680;28;20059;-74
2022/12/15 05:32:43;;;;;;;0.20;0.20;;;3.70;99.90;;;;;;5077246;28;20068;-75
2022/12/15 05:35:13;;;;;;;0.08;0.08;;;3.70;99.90;;;;;;5077682;28;20005;-74
2022/12/15 05:37:39;;;;;;;0.10;0.10;;;3.70;99.90;;;;;;5074032;28;20406;-74
2022/12/15 05:40:07;;;;;;;0.25;0.25;;;3.70;99.90;;;;;;5071993;28;20020;-75
2022/12/15 05:42:32;;;;;;;7.72;7.43;;;3.70;99.90;;;;;;5074219;28;20027;-73
2022/12/15 05:44:58;;;;;;;1.55;1.45;;;3.60;99.90;;;;;;5074090;28;20127;-74
2022/12/15 05:47:24;;;;;;;6.68;6.03;;;3.60;99.90;;;;;;5074390;28;20025;-74
2022/12/15 05:49:50;;;;;;;0.10;0.10;;;3.60;99.90;;;;;;5075298;28;20021;-74
2022/12/15 05:52:16;;;;;;;0.52;0.52;;;3.60;99.90;;;;;;5073380;28;20056;-74
2022/12/15 05:54:41;;;;;;;17.27;15.18;;;3.70;99.90;;;;;;5055592;28;20020;-75
2022/12/15 05:57:08;;;;;;;4.40;4.22;;;3.70;99.90;;;;;;5073827;28;20023;-75
2022/12/15 05:59:33;;;;;;;3.10;3.00;;;3.70;99.90;;;;;;5075878;28;20017;-74
2022/12/15 06:01:59;;;;;;;0.00;0.00;;;3.70;99.90;;;;;;5071731;28;20025;-74
2022/12/15 06:04:25;;;;;;;0.00;0.00;;;3.60;99.90;;;;;;5076960;28;20029;-74
2022/12/15 06:06:51;;;;;;;15.00;14.48;;;3.60;99.90;;;;;;5056019;28;20082;-75
2022/12/15 06:09:16;;;;;;;0.25;0.25;;;3.50;99.90;;;;;;5072122;28;20039;-74
2022/12/15 06:11:42;;;;;;;0.55;0.55;;;3.50;99.90;;;;;;5073594;28;20020;-74
2022/12/15 06:14:08;;;;;;;0.80;0.80;;;3.60;99.90;;;;;;5070989;28;20020;-74
2022/12/15 06:16:38;;;;;;;0.10;0.10;;;3.50;99.90;;;;;;5071840;28;20020;-74
2022/12/15 06:19:04;;;;;;;0.20;0.20;;;3.60;99.90;;;;;;5066499;28;20265;-73
2022/12/15 06:21:34;;;;;;;0.10;0.10;;;3.50;99.90;;;;;;5066426;28;20024;-75
2022/12/15 06:24:00;;;;;;;0.10;0.10;;;4.00;99.90;;;;;;5048790;28;20121;-74
2022/12/15 06:26:37;;;;;;;0.05;0.05;;;3.50;99.90;;;;;;5063175;28;20049;-75
2022/12/15 06:29:04;;;;;;;18.42;17.58;;;3.60;99.90;;;;;;5068203;28;20020;-74
2022/12/15 06:31:34;;;;;;;2.55;2.45;;;3.60;99.90;;;;;;5076637;28;20048;-74
2022/12/15 06:34:07;;;;;;;14.23;8.35;;;3.70;99.90;;;;;;5077724;28;20398;-74
2022/12/15 06:36:33;;;;;;;0.90;0.90;;;3.70;99.90;;;;;;5062618;28;20514;-74
2022/12/15 06:39:01;;;;;;;0.20;0.20;;;3.80;99.90;;;;;;5068954;28;20272;-75
2022/12/15 06:41:31;;;;;;;0.10;0.10;;;3.80;99.90;;;;;;5070063;28;20232;-74
2022/12/15 06:43:58;;;;;;;4.10;3.92;;;3.80;99.90;;;;;;5067768;28;20027;-74
2022/12/15 06:46:25;;;;;;;0.03;0.03;;;3.80;99.90;;;;;;5069873;28;20111;-74
2022/12/15 06:48:52;;;;;;;21.50;20.40;;;3.80;99.90;;;;;;5071652;28;20293;-74
2022/12/15 06:51:18;;;;;;;8.65;8.23;;;5.10;99.90;;;;;;5068523;28;20029;-74
2022/12/15 06:53:47;;;;;;;2.35;2.25;;;3.80;99.90;;;;;;5073402;28;20043;-74
2022/12/15 06:56:19;;;;;;;0.10;0.10;;;3.30;99.90;;;;;;5071532;28;20133;-75
2022/12/15 06:58:49;;;;;;;0.68;0.68;;;3.60;99.90;;;;;;5070046;28;20538;-74
2022/12/15 07:01:17;;;;;;;0.10;0.10;;;3.60;99.90;;;;;;5074116;28;20668;-74
2022/12/15 07:03:43;;;;;;;0.05;0.05;;;3.40;99.90;;;;;;5072883;28;20024;-74
2022/12/15 07:06:11;;;;;;;0.10;0.10;;;3.40;99.90;;;;;;5077020;28;20084;-79
2022/12/15 07:08:46;;;;;;;0.03;0.03;;;3.30;99.90;;;;;;5074729;28;20039;-74
2022/12/15 07:11:12;;;;;;;0.00;0.00;;;3.30;99.90;;;;;;5074470;28;20108;-74
2022/12/15 07:13:39;;;;;;;0.60;0.60;;;3.30;99.90;;;;;;5068826;28;20055;-74
2022/12/15 07:16:06;;;;;;;0.10;0.10;;;3.40;99.90;;;;;;5069762;28;20084;-75
2022/12/15 07:18:32;;;;;;;0.00;0.00;;;3.40;99.90;;;;;;5074529;28;20067;-74
2022/12/15 07:21:08;;;;;;;0.03;0.03;;;3.40;99.90;;;;;;5067852;28;20036;-74
2022/12/15 07:23:35;;;;;;;0.10;0.10;;;3.50;99.90;;;;;;5080533;28;20119;-74
2022/12/15 07:26:09;;;;;;;0.10;0.10;;;3.60;99.90;;;;;;5067066;28;20064;-74
2022/12/15 07:28:36;;;;;;;8.55;7.97;;;3.70;99.90;;;;;;5068685;28;20025;-75
2022/12/15 07:31:10;;;;;;;0.00;0.00;;;3.80;99.90;;;;;;5074833;28;20025;-74
2022/12/15 07:33:53;;;;;;;1.65;1.55;;;3.90;99.90;;;;;;5080238;28;20059;-74
2022/12/15 07:36:19;;;;;;;8.80;8.40;;;3.90;99.90;;;;;;5066249;28;20024;-74
2022/12/15 07:38:45;;;;;;;0.10;0.10;;;3.80;99.90;;;;;;5075729;28;20058;-74
2022/12/15 07:41:30;;;;;;;0.15;0.15;;;3.80;99.90;;;;;;5083448;28;20024;-74
2022/12/15 07:43:57;;;;;;;0.10;0.10;;;3.80;99.90;;;;;;5047473;28;20616;-74
2022/12/15 07:46:25;;;;;;;0.03;0.03;;;3.90;99.90;;;;;;5070199;28;20035;-77
2022/12/15 07:48:52;;;;;;;0.10;0.10;;;3.90;99.90;;;;;;5078350;28;20032;-75
2022/12/15 07:51:21;;;;;;;0.08;0.08;;;3.90;99.90;;;;;;5060636;28;20116;-74
2022/12/15 07:53:49;;;;;;;1.70;0.63;;;3.90;99.90;;;;;;5080932;28;20044;-74
2022/12/15 07:56:19;;;;;;;0.05;0.05;;;3.90;99.90;;;;;;5072236;28;20329;-74
2022/12/15 07:58:45;;;;;;;1.33;1.33;;;4.20;99.90;;;;;;5068858;28;20348;-75
2022/12/15 08:01:12;;;;;;;0.10;0.10;;;6.70;99.90;;;;;;5072001;28;20056;-74
2022/12/15 08:03:49;;;;;;;0.20;0.20;;;4.20;99.90;;;;;;5072075;28;20081;-74
2022/12/15 08:06:15;;;;;;;0.10;0.10;;;4.30;99.90;;;;;;5051405;28;20029;-75
2022/12/15 08:08:49;;;;;;;7.63;7.20;;;4.50;99.90;;;;;;5083038;28;20028;-77
2022/12/15 08:11:16;;;;;;;0.40;0.40;;;4.40;99.90;;;;;;5084912;28;20029;-75
2022/12/15 08:13:43;;;;;;;0.10;0.10;;;4.60;99.90;;;;;;5083645;28;20032;-75
2022/12/15 08:16:09;;;;;;;2.50;2.30;;;4.70;99.90;;;;;;5090846;28;20024;-75
2022/12/15 08:18:35;;;;;;;0.10;0.10;;;4.70;99.90;;;;;;5083147;28;20052;-75
2022/12/15 08:21:02;;;;;;;0.10;0.10;;;4.80;99.90;;;;;;5087329;28;20229;-75
2022/12/15 08:23:28;;;;;;;0.10;0.10;;;4.90;99.90;;;;;;5082177;28;20031;-74
2022/12/15 08:25:53;;;;;;;4.45;4.07;;;4.90;99.90;;;;;;5082047;28;20088;-75
2022/12/15 08:28:20;;;;;;;0.10;0.10;;;5.00;99.90;;;;;;5085365;28;20021;-74
2022/12/15 08:30:45;;;;;;;0.95;0.95;;;5.00;99.90;;;;;;5083515;28;20024;-74
2022/12/15 08:33:11;;;;;;;0.77;0.77;;;5.10;99.90;;;;;;5084465;28;20027;-75
2022/12/15 08:35:40;;;;;;;0.10;0.10;;;5.10;99.90;;;;;;5073848;28;20236;-75
2022/12/15 08:38:27;;;;;;;0.20;0.20;;;5.10;99.90;;;;;;5055475;28;20662;-74
2022/12/15 08:40:54;;;;;;;12.05;6.32;;;5.00;99.90;;;;;;5070341;28;20020;-73
2022/12/15 08:43:20;;;;;;;0.00;0.00;;;5.00;99.90;;;;;;5085188;28;20045;-74
2022/12/15 08:45:54;;;;;;;0.10;0.10;;;5.00;99.90;;;;;;5069313;28;20082;-74
2022/12/15 08:48:21;;;;;;;0.10;0.10;;;5.00;99.90;;;;;;5049984;28;20562;-75
2022/12/15 08:50:48;;;;;;;10.75;10.13;;;;;;;;;;5054002;28;20025;-74
2022/12/15 08:53:15;;;;;;;2.03;1.98;;;5.80;99.90;;;;;;5070138;28;20045;-74
2022/12/15 08:55:42;;;;;;;0.10;0.10;;;5.10;99.90;;;;;;5067252;28;20107;-75
2022/12/15 08:58:09;;;;;;;4.32;3.95;;;5.20;99.90;;;;;;5074994;28;20021;-74
2022/12/15 09:00:38;;;;;;;24.75;23.63;;;5.10;99.90;;;;;;5082095;28;20036;-74
2022/12/15 09:03:05;;;;;;;3.70;3.60;;;5.00;99.90;;;;;;5074842;28;20077;-75
2022/12/15 09:05:34;;;;;;;0.10;0.10;;;5.40;99.90;;;;;;5083319;28;20046;-76
2022/12/15 09:08:00;;;;;;;1.02;1.00;;;5.40;99.90;;;;;;5070029;28;20024;-75
2022/12/15 09:10:26;;;;;;;0.20;0.20;;;5.50;99.90;;;;;;5075663;28;20017;-75
2022/12/15 09:12:51;;;;;;;0.50;0.50;;;5.50;99.90;;;;;;5078462;28;20017;-75
2022/12/15 09:15:21;;;;;;;0.10;0.10;;;5.60;99.90;;;;;;5076377;28;20109;-75
2022/12/15 09:17:49;;;;;;;0.77;0.77;;;5.60;99.90;;;;;;5057712;28;20013;-75
2022/12/15 09:20:23;;;;;;;0.20;0.20;;;5.60;99.90;;;;;;5075187;28;20027;-75
2022/12/15 09:22:52;;;;;;;0.20;0.20;;;5.60;99.90;;;;;;5071665;28;20027;-75
2022/12/15 09:25:17;;;;;;;1.55;1.55;;;5.60;99.90;;;;;;5073968;28;20052;-75
2022/12/15 09:27:43;;;;;;;87.88;81.85;;;5.60;99.90;;;;;;5082700;28;20051;-75
2022/12/15 09:30:31;;;;;;;30.75;29.35;;;5.60;99.90;;;;;;5086818;28;20012;-75
2022/12/15 09:32:57;;;;;;;1.73;1.65;;;5.60;99.90;;;;;;5062702;28;20521;-74
2022/12/15 09:35:26;;;;;;;0.10;0.10;;;5.60;99.90;;;;;;5067781;28;20020;-74
2022/12/15 09:37:57;;;;;;;0.30;0.30;;;5.60;99.90;;;;;;5081781;28;20067;-74
2022/12/15 09:40:24;;;;;;;4.03;3.83;;;5.60;99.90;;;;;;5073511;28;20055;-75
2022/12/15 09:42:55;;;;;;;0.10;0.10;;;5.60;99.90;;;;;;5073249;28;20017;-76
2022/12/15 09:45:32;;;;;;;3.70;3.60;;;5.70;99.90;;;;;;5084891;28;20029;-75
2022/12/15 09:48:04;;;;;;;1.48;1.48;;;5.70;99.90;;;;;;5067457;28;20024;-76
2022/12/15 09:50:39;;;;;;;0.22;0.22;;;5.70;99.90;;;;;;5066848;28;20171;-76
2022/12/15 09:53:13;;;;;;;1.80;1.70;;;5.50;99.90;;;;;;5066253;28;20630;-74
2022/12/15 09:55:39;;;;;;;0.20;0.20;;;;;;;;;;5046366;28;20527;-74
2022/12/15 09:58:25;;;;;;;0.40;0.40;;;5.70;99.90;;;;;;5041174;28;20034;-75
2022/12/15 10:01:19;;;;;;;0.50;0.50;;;5.70;99.90;;;;;;4974199;28;20644;-75
2022/12/15 10:04:10;;;;;;;0.10;0.10;;;8.60;99.90;;;;;;4972910;28;20043;-75
2022/12/15 10:06:52;;;;;;;3.63;3.45;;;6.00;99.90;;;;;;4973268;28;20049;-75
2022/12/15 10:09:17;;;;;;;0.20;0.20;;;6.10;99.90;;;;;;4977469;28;20026;-74
2022/12/15 10:11:46;;;;;;;0.10;0.10;;;6.00;99.90;;;;;;4962484;28;20118;-74
2022/12/15 10:14:33;;;;;;;3.40;3.30;;;6.20;99.90;;;;;;4961762;28;20022;-75
2022/12/15 10:17:33;;;;;;;0.13;0.13;;;6.00;99.90;;;;;;4962223;28;20167;-75
2022/12/15 10:20:20;;;;;;;0.10;0.10;;;6.00;99.90;;;;;;4943738;28;20020;-75
2022/12/15 10:22:46;;;;;;;56.17;54.22;;;6.20;99.90;;;;;;4959244;28;20038;-74
2022/12/15 10:25:17;;;;;;;1.80;1.70;;;6.20;99.90;;;;;;4971777;28;20085;-75
2022/12/15 10:27:48;;;;;;;0.55;0.55;;;6.20;99.90;;;;;;4810001;28;4556606;-75
2022/12/15 10:30:15;;;;;;;0.50;0.50;;;6.20;99.90;;;;;;4964136;28;20442;-75
2022/12/15 10:33:01;;;;;;;0.10;0.10;;;6.10;99.90;;;;;;4964806;28;20716;-75
2022/12/15 10:35:39;;;;;;;3.20;3.10;;;6.20;99.90;;;;;;4965374;28;20045;-74
2022/12/15 10:38:20;;;;;;;3.08;1.95;;;6.20;99.90;;;;;;5008206;28;20033;-75
2022/12/15 10:40:58;;;;;;;12.75;12.30;;;6.00;99.90;;;;;;5048191;28;20090;-75
2022/12/15 10:43:29;;;;;;;0.85;0.85;;;6.20;99.90;;;;;;5045737;28;20029;-74
2022/12/15 10:46:17;;;;;;;0.00;0.00;;;6.30;99.90;;;;;;5051105;28;20044;-73
2022/12/15 10:48:58;;;;;;;0.10;0.10;;;6.30;99.90;;;;;;5049121;28;20056;-75
2022/12/15 10:51:29;;;;;;;3.08;2.00;;;6.40;99.90;;;;;;5056044;28;20020;-75
2022/12/15 10:54:13;;;;;;;60.08;57.53;;;6.30;99.90;;;;;;5058498;28;20053;-74
2022/12/15 10:56:49;;;;;;;0.75;0.75;;;6.40;99.90;;;;;;5054080;28;20462;-75
2022/12/15 10:59:22;;;;;;;0.52;0.52;;;6.30;99.90;;;;;;5052993;28;20029;-75
2022/12/15 11:01:49;;;;;;;0.22;0.22;;;6.40;99.90;;;;;;5055066;28;20018;-74
2022/12/15 11:04:39;;;;;;;0.68;0.68;;;6.60;99.90;;;;;;5055928;28;20029;-74
2022/12/15 11:07:12;;;;;;;13.05;12.35;;;6.70;99.90;;;;;;5031014;28;20531;-75
2022/12/15 11:09:49;;;;;;;0.10;0.10;;;6.80;99.90;;;;;;5026127;28;20116;-75
2022/12/15 11:15:30;;;;;;;19.13;18.27;;;7.00;99.90;;;;;;5056754;28;20032;-75
2022/12/15 11:18:15;;;;;;;0.10;0.10;;;7.10;99.90;;;;;;5059592;28;20025;-74
2022/12/15 11:20:53;;;;;;;0.50;0.50;;;7.10;99.90;;;;;;5040447;28;20080;-74
2022/12/15 11:23:36;;;;;;;0.30;0.30;;;7.10;99.90;;;;;;5045523;28;20498;-74
2022/12/15 11:26:13;;;;;;;7.18;6.95;;;7.00;99.90;;;;;;5046454;28;20577;-74
2022/12/15 11:28:45;;;;;;;17.77;16.88;;;7.00;99.90;;;;;;5046348;28;20638;-74
2022/12/15 11:31:32;;;;;;;0.20;0.20;;;7.00;99.90;;;;;;5063712;28;20021;-75
2022/12/15 11:33:59;;;;;;;7.38;6.97;;;6.90;99.90;;;;;;5064227;28;20042;-75
2022/12/15 11:37:04;;;;;;;64.38;60.63;;;6.90;99.90;;;;;;5064355;28;20025;-74
2022/12/15 11:39:41;;;;;;;4.88;4.72;;;6.80;99.90;;;;;;5064530;28;20033;-75
2022/12/15 11:42:29;;;;;;;1.30;1.30;;;6.80;99.90;;;;;;5067086;28;20021;-75
2022/12/15 11:45:01;;;;;;;0.30;0.30;;;8.50;99.90;;;;;;5044010;28;20033;-75
2022/12/15 11:47:44;;;;;;;22.85;21.60;;;6.90;99.90;;;;;;5060951;28;20055;-75
2022/12/15 11:50:25;;;;;;;0.50;0.50;;;7.00;99.90;;;;;;5062676;28;20037;-75
2022/12/15 11:53:20;;;;;;;0.90;0.88;;;7.10;99.90;;;;;;5047593;28;20027;-75
2022/12/15 11:56:20;;;;;;;3.10;3.00;;;7.20;99.90;;;;;;5050963;28;20597;-74
2022/12/15 11:59:07;;;;;;;1.33;1.33;;;7.50;99.90;;;;;;5053323;28;20210;-75
2022/12/15 12:02:00;;;;;;;9.18;8.77;;;7.50;99.90;;;;;;5051407;28;20064;-74
2022/12/15 12:04:47;;;;;;;0.40;0.40;;;7.50;99.90;;;;;;5051543;28;20025;-74
2022/12/15 12:07:35;;;;;;;6.78;6.53;;;7.60;99.90;;;;;;5035267;28;20602;-75
2022/12/15 12:10:38;;;;;;;0.20;0.20;;;7.60;99.90;;;;;;5048895;28;20033;-75
2022/12/15 12:13:29;;;;;;;0.30;0.30;;;7.70;99.90;;;;;;5055841;28;20502;-75
2022/12/15 12:16:42;;;;;;;0.30;0.30;;;7.80;99.90;;;;;;4972899;28;20035;-75
2022/12/15 12:19:19;;;;;;;36.63;33.60;;;8.00;99.90;;;;;;4899233;28;20108;-75
2022/12/15 12:21:49;;;;;;;1.55;1.50;;;8.00;99.90;;;;;;4884208;29;20840;-75
2022/12/15 12:24:40;;;;;;;8.43;8.13;;;8.10;99.90;;;;;;4899298;29;20069;-75
2022/12/15 12:27:21;;;;;;;1.30;1.30;;;8.10;99.90;;;;;;4900597;29;20053;-75
2022/12/15 12:29:54;;;;;;;5.82;5.57;;;8.10;99.90;;;;;;4894041;29;20531;-74
2022/12/15 12:32:28;;;;;;;0.30;0.30;;;8.10;99.90;;;;;;4898199;29;20143;-76
2022/12/15 12:35:22;;;;;;;74.00;67.35;;;8.10;99.90;;;;;;4898792;29;20029;-75
2022/12/15 12:37:57;;;;;;;44.90;33.50;;;8.20;99.90;;;;;;4895949;29;20067;-75
2022/12/15 12:40:39;;;;;;;14.82;14.02;;;10.60;99.90;;;;;;4892298;29;20036;-75
2022/12/15 12:43:09;;;;;;;12.38;11.80;;;8.40;99.90;;;;;;4889568;29;20041;-74
2022/12/15 12:45:44;;;;;;;1.00;1.00;;;8.70;99.90;;;;;;4896891;29;20111;-74
2022/12/15 12:48:40;;;;;;;1.13;1.13;;;8.90;99.90;;;;;;4889862;29;20027;-74
2022/12/15 12:51:30;;;;;;;13.90;13.23;;;8.60;99.90;;;;;;4894643;29;20116;-74
2022/12/15 12:53:58;;;;;;;0.20;0.20;;;9.00;99.90;;;;;;4937515;29;20051;-75
2022/12/15 12:56:43;;;;;;;12.55;11.68;;;8.90;99.90;;;;;;5028048;28;20025;-75
2022/12/15 12:59:27;;;;;;;0.70;0.70;;;9.10;99.90;;;;;;5056498;28;20112;-75
2022/12/15 13:02:17;;;;;;;0.65;0.65;;;9.10;99.90;;;;;;5062444;28;20029;-74
2022/12/15 13:04:50;;;;;;;3.92;3.78;;;9.10;99.90;;;;;;5037718;28;20116;-74
2022/12/15 13:07:37;;;;;;;0.20;0.20;;;9.00;99.90;;;;;;5059416;28;20017;-74
2022/12/15 13:10:20;;;;;;;6.53;6.07;;;9.00;99.90;;;;;;5061339;28;20718;-75
2022/12/15 13:12:59;;;;;;;4.47;4.28;;;9.00;99.90;;;;;;5061047;28;20105;-75
2022/12/15 13:15:30;;;;;;;5.55;5.22;;;9.00;99.90;;;;;;5055765;28;20025;-74
2022/12/15 13:18:05;;;;;;;2.67;2.55;;;8.90;99.90;;;;;;5061829;28;20049;-75
2022/12/15 13:20:36;;;;;;;7.18;6.70;;;8.90;99.90;;;;;;5058561;28;20080;-75
2022/12/15 13:23:20;;;;;;;0.30;0.30;;;8.70;99.90;;;;;;5059125;28;20021;-75
2022/12/15 13:26:07;;;;;;;10.50;10.00;;;8.70;99.90;;;;;;5053173;28;20040;-75
2022/12/15 13:29:02;;;;;;;32.45;30.77;;;8.70;99.90;;;;;;5034732;28;20557;-75
2022/12/15 13:31:29;;;;;;;2.53;2.42;;;8.70;99.90;;;;;;5056220;28;20045;-74
2022/12/15 13:34:25;;;;;;;0.95;0.95;;;8.70;99.90;;;;;;5059492;28;20017;-74
2022/12/15 13:36:55;;;;;;;12.65;11.75;;;8.90;99.90;;;;;;5029448;28;20027;-75
2022/12/15 13:39:27;;;;;;;0.73;0.70;;;8.80;99.90;;;;;;5046219;28;20039;-75
2022/12/15 13:42:05;;;;;;;5.97;5.68;;;7.20;99.90;;;;;;5047225;28;20031;-76
2022/12/15 13:44:40;;;;;;;9.13;8.65;;;8.90;99.90;;;;;;5045122;28;20051;-75
2022/12/15 13:47:24;;;;;;;4.10;3.92;;;9.00;99.90;;;;;;5050571;28;20021;-74
2022/12/15 13:50:17;;;;;;;0.30;0.30;;;9.00;99.90;;;;;;5051023;28;20013;-74
2022/12/15 13:52:53;;;;;;;17.90;16.92;;;9.10;99.90;;;;;;5051486;28;20714;-74
2022/12/15 13:55:32;;;;;;;2.92;2.80;;;9.00;99.90;;;;;;5055236;28;20101;-74
2022/12/15 13:58:16;;;;;;;7.00;6.75;;;9.00;99.90;;;;;;5056705;28;20017;-75
2022/12/15 14:00:54;;;;;;;6.18;5.90;;;9.00;99.90;;;;;;5049361;28;20051;-75
2022/12/15 14:03:20;;;;;;;10.52;9.95;;;9.00;99.90;;;;;;5056028;28;20612;-76
2022/12/15 14:05:53;;;;;;;16.70;15.68;;;8.80;99.90;;;;;;5052799;28;20033;-75
2022/12/15 14:08:22;;;;;;;1.45;1.42;;;8.90;99.90;;;;;;5059784;28;20074;-75
2022/12/15 14:11:02;;;;;;;18.77;17.60;;;8.80;99.90;;;;;;5061247;28;20025;-75
2022/12/15 14:13:34;;;;;;;2.25;2.15;;;8.70;99.90;;;;;;5052957;28;20086;-74
2022/12/15 14:16:19;;;;;;;4.03;3.70;;;8.70;99.90;;;;;;5046348;28;20021;-75
2022/12/15 14:19:03;;;;;;;1.35;1.30;;;8.70;99.90;;;;;;5052619;28;20507;-74
2022/12/15 14:21:29;;;;;;;;;;;8.60;99.90;;;;;;5054880;28;20013;-75
2022/12/15 14:23:56;;;;;;;20.27;19.13;;;9.10;99.90;;;;;;5048587;28;19912;-75
2022/12/15 14:26:29;;;;;;;0.98;0.98;;;8.50;99.90;;;;;;5058358;28;20045;-75
2022/12/15 14:29:01;;;;;;;4.72;4.40;;;8.40;99.90;;;;;;5040534;28;20639;-76
2022/12/15 14:31:28;;;;;;;4.30;4.18;;;8.40;99.90;;;;;;5059434;28;20025;-75
2022/12/15 14:34:12;;;;;;;19.98;19.00;;;8.30;99.90;;;;;;5058413;28;20021;-75
2022/12/15 14:36:41;;;;;;;25.65;24.33;;;8.30;99.90;;;;;;5054071;28;20043;-75
2022/12/15 14:39:22;;;;;;;0.30;0.30;;;8.20;99.90;;;;;;5052243;28;20033;-76
2022/12/15 14:41:51;;;;;;;0.28;0.28;;;8.10;99.90;;;;;;5057070;28;20025;-76
2022/12/15 14:44:30;;;;;;;3.63;3.50;;;8.00;99.90;;;;;;5035724;28;20722;-75
2022/12/15 14:47:04;;;;;;;7.97;7.63;;;8.00;99.90;;;;;;5052019;28;20044;-75
2022/12/15 14:49:38;;;;;;;3.40;3.20;;;7.90;99.90;;;;;;5055365;28;20028;-75
2022/12/15 14:52:11;;;;;;;0.40;0.40;;;7.80;99.90;;;;;;5048985;28;20035;-74
2022/12/15 14:54:48;;;;;;;5.43;5.22;;;7.70;99.90;;;;;;5053655;28;20017;-75
2022/12/15 14:57:23;;;;;;;1.70;1.70;;;7.70;99.90;;;;;;5054292;28;20055;-75
2022/12/15 14:59:51;;;;;;;2.90;2.70;;;4.80;99.90;;;;;;5038584;28;20021;-75
2022/12/15 15:02:21;;;;;;;19.63;18.52;;;8.20;99.90;;;;;;5053467;28;20059;-75
2022/12/15 15:04:59;;;;;;;7.85;7.22;;;7.60;99.90;;;;;;5056127;28;20021;-75
2022/12/15 15:07:27;;;;;;;0.30;0.30;;;7.50;99.90;;;;;;5052583;28;20052;-75
2022/12/15 15:09:57;;;;;;;32.20;30.10;;;7.50;99.90;;;;;;5053249;28;20422;-75
2022/12/15 15:12:39;;;;;;;11.98;10.70;;;7.40;99.90;;;;;;5056755;28;20028;-75
2022/12/15 15:15:06;;;;;;;2.70;2.60;;;7.30;99.90;;;;;;5062065;28;20020;-74
2022/12/15 15:17:44;;;;;;;99.07;78.05;;;7.20;99.90;;;;;;5056415;28;20021;-75
2022/12/15 15:20:25;;;;;;;3.20;3.10;;;7.20;99.90;;;;;;5055356;28;20051;-74
2022/12/15 15:23:15;;;;;;;9.27;8.57;;;7.10;99.90;;;;;;5053524;28;20029;-75
2022/12/15 15:26:09;;;;;;;5.80;5.55;;;6.80;99.90;;;;;;5053278;28;20021;-75
2022/12/15 15:28:40;;;;;;;11.88;11.35;;;6.90;99.90;;;;;;5047836;28;20037;-75
2022/12/15 15:31:29;;;;;;;2.08;1.98;;;6.90;99.90;;;;;;5046403;28;20082;-75
2022/12/15 15:33:56;;;;;;;0.22;0.22;;;6.90;99.90;;;;;;5046388;28;20017;-75
2022/12/15 15:36:27;;;;;;;41.28;39.20;;;7.00;99.90;;;;;;5044944;28;20029;-75
2022/12/15 15:38:54;;;;;;;33.75;32.28;;;7.00;99.90;;;;;;5048816;28;20671;-75
2022/12/15 15:41:33;;;;;;;3.80;3.67;;;7.00;99.90;;;;;;5049795;28;20017;-74
2022/12/15 15:44:00;;;;;;;8.18;7.80;;;7.00;99.90;;;;;;5044829;28;20045;-74
2022/12/15 15:46:33;;;;;;;1.05;1.05;;;7.00;99.90;;;;;;5048678;28;20146;-74
2022/12/15 15:49:08;;;;;;;9.95;9.50;;;7.00;99.90;;;;;;5022206;28;20104;-75
2022/12/15 15:51:37;;;;;;;13.65;12.75;;;7.00;99.90;;;;;;5047813;28;20497;-75